Time;durP1;ratioP1;P1;durP2;ratioP2;P2;SDS_P1;SDS_P2;PMS_P1;PMS_P2;Temp;Humidity;BMP_temperature;BMP_pressure;BME280_temperature;BME280_humidity;BME280_pressure;Samples;Min_cycle;Max_cycle;Signal;HPM_P1;HPM_P2
2021/05/09 00:04:06;;;;;;;26.03;11.87;;;;;;;7.81;59.97;100853.53;5092761;56;1138347;-78
2021/05/09 00:09:12;;;;;;;22.07;11.67;;;;;;;7.81;60.03;100852.22;5092688;56;1138325;-78
2021/05/09 00:14:18;;;;;;;24.15;11.03;;;;;;;7.83;60.02;100848.18;5092697;56;1138554;-75
2021/05/09 00:19:23;;;;;;;23.60;11.57;;;;;;;7.82;60.08;100845.17;5092926;55;1138800;-78
2021/05/09 00:24:30;;;;;;;26.60;13.03;;;;;;;7.83;60.08;100840.28;5093250;56;1138569;-77
2021/05/09 00:29:36;;;;;;;23.45;11.68;;;;;;;7.86;60.21;100841.41;5093022;56;1138487;-77
2021/05/09 00:34:42;;;;;;;22.98;12.58;;;;;;;7.88;60.25;100837.75;5092945;56;1138738;-80
2021/05/09 00:39:48;;;;;;;25.27;13.30;;;;;;;7.90;60.23;100835.03;5092995;56;1139009;-75
2021/05/09 00:44:53;;;;;;;24.60;13.05;;;;;;;7.90;60.36;100831.92;5092873;56;1138457;-80
2021/05/09 00:49:59;;;;;;;32.50;12.63;;;;;;;7.91;60.22;100827.04;5092714;56;1138284;-72
2021/05/09 00:55:08;;;;;;;28.37;14.03;;;;;;;7.92;60.28;100820.83;5092704;56;1138334;-77
2021/05/09 01:00:16;;;;;;;36.20;15.13;;;;;;;7.93;60.46;100822.53;5093069;56;1138450;-79
2021/05/09 01:05:23;;;;;;;32.42;13.98;;;;;;;7.95;60.48;100812.72;5092630;56;1138799;-83
2021/05/09 01:10:29;;;;;;;27.30;14.33;;;;;;;7.95;60.68;100807.45;5092937;56;1138216;-78
2021/05/09 01:15:35;;;;;;;22.50;13.58;;;;;;;7.94;60.64;100805.78;5092731;56;1138363;-81
2021/05/09 01:20:42;;;;;;;34.25;16.87;;;;;;;7.94;60.83;100803.63;5092887;56;1138486;-84
2021/05/09 01:25:48;;;;;;;32.43;16.57;;;;;;;7.94;60.98;100800.52;5092717;56;1138363;-78
2021/05/09 01:30:54;;;;;;;34.97;17.10;;;;;;;7.94;61.08;100795.25;5092773;56;1138433;-83
2021/05/09 01:36:01;;;;;;;32.30;15.93;;;;;;;7.94;61.35;100793.09;5092414;56;1138329;-77
2021/05/09 01:41:07;;;;;;;28.17;15.10;;;;;;;7.93;61.53;100785.66;5092865;56;1138752;-84
2021/05/09 01:46:12;;;;;;;44.40;17.10;;;;;;;7.89;61.77;100781.52;5092420;56;1138399;-80
2021/05/09 01:51:20;;;;;;;30.60;16.47;;;;;;;7.87;62.03;100785.18;5092532;56;1138451;-78
2021/05/09 01:56:26;;;;;;;33.57;14.67;;;;;;;7.84;62.24;100780.09;5092472;56;1138479;-77
2021/05/09 02:01:32;;;;;;;22.97;13.33;;;;;;;7.85;62.18;100775.20;5093223;56;1138468;-77
2021/05/09 02:06:40;;;;;;;32.55;13.93;;;;;;;7.85;62.46;100779.16;5092080;56;1138258;-82
2021/05/09 02:11:46;;;;;;;32.85;17.07;;;;;;;7.87;62.31;100774.64;5092757;56;1138980;-81
2021/05/09 02:16:54;;;;;;;21.97;13.23;;;;;;;7.89;62.46;100764.39;5092567;56;1138332;-75
2021/05/09 02:22:00;;;;;;;28.80;14.63;;;;;;;7.90;62.54;100768.72;5092440;56;1138365;-87
2021/05/09 02:27:08;;;;;;;25.00;14.37;;;;;;;7.91;62.57;100769.10;5092934;56;1138428;-80
2021/05/09 02:32:14;;;;;;;26.47;15.07;;;;;;;7.92;62.65;100762.89;5093350;56;1138707;-80
2021/05/09 02:37:20;;;;;;;27.05;13.78;;;;;;;7.92;62.66;100756.31;5092756;56;1138519;-75
2021/05/09 02:42:26;;;;;;;23.00;13.47;;;;;;;7.94;62.82;100762.33;5093201;56;1138267;-77
2021/05/09 02:47:32;;;;;;;29.23;15.23;;;;;;;7.94;62.87;100761.48;5093397;56;1138337;-81
2021/05/09 02:52:40;;;;;;;32.25;15.10;;;;;;;7.96;62.87;100759.57;5093133;56;1138340;-79
2021/05/09 02:57:46;;;;;;;26.20;14.53;;;;;;;7.96;62.92;100752.98;5083662;56;1138251;-78
2021/05/09 03:02:51;;;;;;;31.43;15.50;;;;;;;7.96;63.01;100743.77;5092895;56;1138771;-78
2021/05/09 03:07:59;;;;;;;22.03;12.50;;;;;;;7.96;63.20;100739.34;5092828;56;1138352;-77
2021/05/09 03:13:05;;;;;;;26.43;12.40;;;;;;;7.95;63.11;100735.49;5092991;56;1138668;-78
2021/05/09 03:18:11;;;;;;;24.17;12.53;;;;;;;7.95;63.19;100726.27;5093020;56;1138609;-76
2021/05/09 03:23:18;;;;;;;21.90;12.90;;;;;;;7.97;63.16;100730.51;5092988;56;1138861;-76
2021/05/09 03:28:24;;;;;;;28.07;12.80;;;;;;;7.99;63.17;100718.09;5092901;56;1138483;-76
2021/05/09 03:33:29;;;;;;;22.33;12.60;;;;;;;8.02;63.19;100726.27;5093252;56;1138521;-76
2021/05/09 03:38:35;;;;;;;30.97;13.60;;;;;;;8.06;63.14;100722.52;5092857;56;1138635;-75
2021/05/09 03:43:41;;;;;;;18.48;9.75;;;;;;;8.11;63.10;100729.16;5093050;56;1138287;-83
2021/05/09 03:48:47;;;;;;;17.98;11.00;;;;;;;8.13;63.04;100724.64;5098156;56;1136375;-75
2021/05/09 03:53:52;;;;;;;22.97;11.53;;;;;;;8.17;63.05;100719.18;5101758;56;1139118;-80
2021/05/09 03:58:58;;;;;;;18.90;11.03;;;;;;;8.18;63.12;100719.08;5101394;56;1138307;-83
2021/05/09 04:04:04;;;;;;;24.63;12.50;;;;;;;8.18;63.04;100713.81;5101558;56;1138421;-79
2021/05/09 04:09:10;;;;;;;22.30;12.20;;;;;;;8.19;63.05;100714.19;5101566;55;1138370;-77
2021/05/09 04:14:16;;;;;;;22.35;9.85;;;;;;;8.23;63.10;100716.16;5101583;56;1138271;-80
2021/05/09 04:19:22;;;;;;;21.17;9.63;;;;;;;8.27;62.95;100703.14;5101931;56;1136324;-81
2021/05/09 04:24:27;;;;;;;17.00;9.20;;;;;;;8.30;62.68;100688.45;5102036;56;1136616;-85
2021/05/09 04:29:34;;;;;;;14.27;8.80;;;;;;;8.36;62.53;100683.67;5102079;56;1145905;-77
2021/05/09 04:34:40;;;;;;;14.10;9.80;;;;;;;8.44;62.46;100689.27;5101857;56;1136806;-77
2021/05/09 04:39:46;;;;;;;21.57;9.20;;;;;;;8.52;62.55;100694.52;5101796;56;1136701;-73
2021/05/09 04:44:51;;;;;;;18.17;9.98;;;;;;;8.59;62.43;100697.10;5101773;56;1136985;-78
2021/05/09 04:49:57;;;;;;;18.33;9.30;;;;;;;8.64;62.36;100693.22;5101459;56;1136507;-83
2021/05/09 04:55:04;;;;;;;18.87;9.53;;;;;;;8.71;62.48;100683.09;5101868;56;1136671;-80
2021/05/09 05:00:14;;;;;;;17.43;9.40;;;;;;;8.76;62.30;100682.32;5101573;56;1136370;-78
2021/05/09 05:05:19;;;;;;;16.40;9.83;;;;;;;8.80;62.36;100678.53;5124607;56;1136334;-75
2021/05/09 05:10:24;;;;;;;15.27;9.30;;;;;;;8.86;62.49;100682.06;5153622;56;1136376;-76
2021/05/09 05:15:30;;;;;;;16.73;9.13;;;;;;;8.92;62.60;100673.74;5153621;56;1136377;-75
2021/05/09 05:20:36;;;;;;;15.50;8.83;;;;;;;9.00;62.66;100675.88;5154016;56;1136511;-77
2021/05/09 05:25:43;;;;;;;15.90;8.73;;;;;;;9.09;62.79;100677.87;5153616;56;1136955;-74
2021/05/09 05:30:49;;;;;;;12.82;7.55;;;;;;;9.19;62.83;100678.91;5153875;56;1136702;-79
2021/05/09 05:35:57;;;;;;;13.07;8.00;;;;;;;9.29;62.20;100677.34;5153485;56;1136328;-79
2021/05/09 05:41:03;;;;;;;13.40;8.03;;;;;;;9.40;62.20;100672.62;5153681;56;1136378;-74
2021/05/09 05:46:09;;;;;;;13.80;7.78;;;;;;;9.56;62.54;100660.03;5153345;56;1138726;-75
2021/05/09 05:51:14;;;;;;;13.03;7.53;;;;;;;9.83;61.72;100660.69;5153627;56;1138376;-75
2021/05/09 05:56:20;;;;;;;11.73;7.00;;;;;;;10.16;61.49;100665.31;5154401;56;1138234;-75
2021/05/09 06:01:25;;;;;;;11.13;6.37;;;;;;;10.49;61.23;100669.09;5154784;56;1140335;-72
2021/05/09 06:06:31;;;;;;;10.83;6.57;;;;;;;10.71;60.60;100660.37;5154758;56;1140252;-76
2021/05/09 06:11:37;;;;;;;11.83;7.23;;;;;;;10.86;59.00;100656.08;5154962;56;1140573;-76
2021/05/09 06:16:44;;;;;;;9.80;6.95;;;;;;;11.06;59.02;100650.58;5154956;56;1140919;-72
2021/05/09 06:21:50;;;;;;;10.50;6.33;;;;;;;11.16;58.77;100638.30;5155119;55;1138250;-75
2021/05/09 06:26:57;;;;;;;11.80;6.13;;;;;;;11.25;58.73;100643.38;5154652;56;1140921;-76
2021/05/09 06:32:03;;;;;;;8.00;5.60;;;;;;;11.35;58.21;100642.16;5154735;55;1140357;-75
2021/05/09 06:37:10;;;;;;;8.97;5.23;;;;;;;11.44;58.14;100629.54;5154869;56;1138427;-77
2021/05/09 06:42:17;;;;;;;7.43;5.13;;;;;;;11.57;57.70;100628.92;5140325;56;1138392;-74
2021/05/09 06:47:26;;;;;;;7.63;6.30;;;;;;;11.85;57.96;100627.56;5127795;56;1138262;-74
2021/05/09 06:52:33;;;;;;;9.80;5.00;;;;;;;12.21;57.28;100629.87;5125427;56;1138708;-77
2021/05/09 06:57:41;;;;;;;9.97;4.57;;;;;;;12.55;57.05;100627.03;5141565;56;1138445;-75
2021/05/09 07:02:46;;;;;;;12.78;6.33;;;;;;;12.83;54.04;100626.38;5129827;56;1138481;-74
2021/05/09 07:07:58;;;;;;;12.28;5.78;;;;;;;12.96;54.35;100624.86;5122238;56;1140950;-77
2021/05/09 07:13:05;;;;;;;7.60;4.20;;;;;;;13.14;55.70;100621.92;5119465;56;1140634;-77
2021/05/09 07:18:18;;;;;;;7.63;5.07;;;;;;;13.42;53.12;100636.36;5097995;56;1138773;-77
2021/05/09 07:23:21;;;;;;;15.27;6.13;;;;;;;13.54;53.51;100636.60;5125835;56;1139026;-77
2021/05/09 07:28:28;;;;;;;6.93;4.20;;;;;;;13.64;53.79;100633.48;5099148;56;1141044;-78
2021/05/09 07:33:34;;;;;;;7.97;4.63;;;;;;;13.86;53.35;100635.08;5097951;56;1138728;-78
2021/05/09 07:38:40;;;;;;;8.10;5.70;;;;;;;14.07;52.58;100627.81;5097954;56;1138786;-79
2021/05/09 07:43:47;;;;;;;17.85;11.33;;;;;;;14.23;51.01;100625.09;5097986;56;1138293;-75
2021/05/09 07:48:53;;;;;;;8.83;6.10;;;;;;;14.32;51.32;100616.28;5117672;56;1142949;-78
2021/05/09 07:53:59;;;;;;;6.87;5.20;;;;;;;14.48;52.94;100617.92;5153398;56;1138834;-76
2021/05/09 07:59:05;;;;;;;9.07;6.73;;;;;;;14.68;52.15;100614.72;5153687;56;1138793;-79
2021/05/09 08:04:12;;;;;;;8.97;5.17;;;;;;;14.79;52.37;100618.57;5153900;55;1138317;-77
2021/05/09 08:09:18;;;;;;;6.10;4.47;;;;;;;14.85;51.29;100607.33;5153545;56;1138467;-78
2021/05/09 08:14:23;;;;;;;8.03;5.63;;;;;;;14.99;53.23;100606.86;5147223;56;1138493;-75
2021/05/09 08:19:29;;;;;;;14.97;9.00;;;;;;;15.30;52.56;100612.77;5153490;56;1138234;-76
2021/05/09 08:24:35;;;;;;;22.47;13.80;;;;;;;15.48;50.14;100600.84;5153202;56;1140443;-78
2021/05/09 08:29:42;;;;;;;16.30;8.90;;;;;;;15.61;49.97;100602.69;5153386;56;1142963;-78
2021/05/09 08:34:48;;;;;;;9.68;4.47;;;;;;;15.71;47.70;100599.48;5153603;56;1140557;-78
2021/05/09 08:39:54;;;;;;;7.78;5.00;;;;;;;15.90;49.12;100599.83;5153475;56;1138491;-77
2021/05/09 08:45:00;;;;;;;24.52;13.10;;;;;;;16.16;49.15;100608.78;5153350;56;1138346;-74
2021/05/09 08:50:11;;;;;;;11.03;4.77;;;;;;;16.38;49.30;100599.44;5152950;56;1142769;-75
2021/05/09 08:55:23;;;;;;;8.43;7.00;;;;;;;16.54;48.96;100607.58;5153452;56;1140632;-78
2021/05/09 09:00:29;;;;;;;6.53;4.43;;;;;;;16.72;47.98;100604.91;5153557;56;1139006;-75
2021/05/09 09:05:47;;;;;;;4.47;3.80;;;;;;;16.89;46.85;100591.17;5153258;56;1138425;-78
2021/05/09 09:10:54;;;;;;;7.92;3.85;;;;;;;17.06;46.41;100598.28;5153653;56;1138470;-78
2021/05/09 09:16:05;;;;;;;7.73;6.13;;;;;;;17.24;46.71;100594.20;5153407;56;1138468;-77
2021/05/09 09:21:29;;;;;;;9.27;4.17;;;;;;;17.50;47.17;100582.09;5153241;56;1138744;-79
2021/05/09 09:26:57;;;;;;;6.20;3.90;;;;;;;17.63;45.10;100582.47;5153450;56;1138328;-75
2021/05/09 09:32:09;;;;;;;5.87;3.43;;;;;;;17.71;45.84;100577.69;5152775;56;1138760;-77
2021/05/09 09:37:18;;;;;;;4.63;3.70;;;;;;;17.91;46.48;100578.55;5153938;56;1138349;-77
2021/05/09 09:42:47;;;;;;;4.40;3.20;;;;;;;18.07;45.06;100571.54;5140169;55;1138438;-75
2021/05/09 09:48:02;;;;;;;5.87;2.85;;;;;;;18.16;43.90;100574.58;5120611;56;1138378;-78
2021/05/09 09:53:33;;;;;;;5.00;2.80;;;;;;;18.33;42.98;100577.59;5101429;55;1139052;-79
2021/05/09 09:59:02;;;;;;;4.50;2.73;;;;;;;18.44;43.00;100567.88;5100233;56;1138462;-78
2021/05/09 10:04:12;;;;;;;2.77;2.57;;;;;;;18.69;42.18;100566.02;5083743;57;1139049;-77
2021/05/09 10:09:18;;;;;;;4.83;3.20;;;;;;;18.95;41.55;100567.13;5092234;57;1138487;-75
2021/05/09 10:14:24;;;;;;;7.70;3.70;;;;;;;19.11;41.93;100560.88;5092286;57;1138356;-77
2021/05/09 10:19:30;;;;;;;4.47;2.87;;;;;;;19.20;41.64;100557.17;5092151;57;1138725;-75
2021/05/09 10:24:39;;;;;;;3.40;1.90;;;;;;;19.24;41.03;100570.58;5092185;57;1138656;-77
2021/05/09 10:29:48;;;;;;;2.50;2.33;;;;;;;19.44;40.56;100552.19;5092425;57;1139086;-75
2021/05/09 10:35:00;;;;;;;3.92;2.17;;;;;;;19.68;41.44;100536.00;5092339;57;1139053;-76
2021/05/09 10:40:26;;;;;;;;;;;;;;;19.90;41.63;100535.17;5096006;57;1138576;-74
2021/05/09 10:45:42;;;;;;;2.58;2.15;;;;;;;20.05;37.77;100541.09;5105780;56;975789;-74
2021/05/09 10:51:05;;;;;;;3.05;1.67;;;;;;;20.19;39.39;100533.59;5092465;57;1136648;-74
2021/05/09 10:56:21;;;;;;;3.52;2.30;;;;;;;20.41;38.79;100536.80;5092026;57;1138450;-77
2021/05/09 11:01:31;;;;;;;3.10;2.40;;;;;;;20.51;39.11;100538.70;5092061;56;1138272;-78
2021/05/09 11:06:47;;;;;;;2.70;1.90;;;;;;;20.59;37.96;100526.55;5092419;57;1138486;-75
2021/05/09 11:11:57;;;;;;;3.47;2.10;;;;;;;20.62;38.11;100507.89;5092086;57;1138348;-76
2021/05/09 11:17:08;;;;;;;6.37;1.70;;;;;;;20.67;38.15;100496.05;5092139;57;1138373;-76
2021/05/09 11:22:16;;;;;;;5.25;1.82;;;;;;;20.85;38.10;100498.37;5092068;57;1138773;-75
2021/05/09 11:27:22;;;;;;;10.28;2.90;;;;;;;20.99;37.01;100499.70;5092043;56;1138336;-79
2021/05/09 11:32:29;;;;;;;3.10;1.90;;;;;;;21.17;38.49;100473.77;5091732;57;1141058;-76
2021/05/09 11:37:39;;;;;;;1.98;1.47;;;;;;;21.24;37.18;100477.89;5092157;57;1138316;-78
2021/05/09 11:42:46;;;;;;;1.87;1.37;;;;;;;21.30;36.59;100460.50;5092124;57;1138498;-78
2021/05/09 11:47:52;;;;;;;8.23;1.90;;;;;;;21.44;37.46;100461.98;5092332;57;1138407;-76
2021/05/09 11:52:58;;;;;;;3.27;2.10;;;;;;;21.54;37.46;100463.33;5091926;57;1138365;-75
2021/05/09 11:58:13;;;;;;;1.80;1.57;;;;;;;21.63;36.42;100464.88;5091910;57;1138284;-77
2021/05/09 12:03:24;;;;;;;1.37;1.27;;;;;;;21.81;36.88;100463.09;5092015;56;1138300;-76
2021/05/09 12:08:31;;;;;;;2.40;1.50;;;;;;;22.00;36.72;100448.98;5092201;57;1138446;-77
2021/05/09 12:13:37;;;;;;;2.52;2.17;;;;;;;22.25;36.68;100448.05;5091814;57;1138808;-75
2021/05/09 12:18:43;;;;;;;3.37;1.57;;;;;;;22.47;36.60;100436.66;5092137;57;1139328;-76
2021/05/09 12:23:49;;;;;;;3.20;2.13;;;;;;;22.62;35.83;100427.11;5091934;57;1138597;-74
2021/05/09 12:28:55;;;;;;;1.80;1.67;;;;;;;22.52;34.26;100427.48;5092118;57;1138546;-76
2021/05/09 12:34:03;;;;;;;3.92;1.40;;;;;;;22.67;33.88;100423.30;5092071;56;1138612;-74
2021/05/09 12:39:23;;;;;;;1.27;1.00;;;;;;;22.68;34.29;100408.80;5091800;57;1138633;-75
2021/05/09 12:44:29;;;;;;;5.08;2.00;;;;;;;22.75;33.07;100405.63;5091916;56;1138692;-75
2021/05/09 12:49:35;;;;;;;1.90;1.72;;;;;;;22.88;32.17;100419.71;5091840;56;1138463;-75
2021/05/09 12:54:44;;;;;;;2.42;2.05;;;;;;;22.99;34.14;100413.21;5091729;57;1138520;-73
2021/05/09 13:00:02;;;;;;;1.95;1.30;;;;;;;22.90;33.87;100402.81;5091687;57;1138504;-75
2021/05/09 13:05:20;;;;;;;5.85;2.60;;;;;;;23.07;33.61;100404.92;5100051;56;1138400;-77
2021/05/09 13:10:29;;;;;;;2.02;1.20;;;;;;;23.19;33.41;100403.84;5100743;56;1138255;-75
2021/05/09 13:15:38;;;;;;;1.20;1.20;;;;;;;23.24;33.59;100399.98;5100802;56;1138379;-75
2021/05/09 13:20:43;;;;;;;2.95;1.42;;;;;;;23.38;34.13;100393.58;5107272;56;1138258;-77
2021/05/09 13:25:51;;;;;;;1.70;1.30;;;;;;;23.41;33.15;100390.47;5116249;55;1138532;-75
2021/05/09 13:30:57;;;;;;;1.30;1.20;;;;;;;23.49;33.76;100395.69;5100768;56;1138524;-74
2021/05/09 13:36:03;;;;;;;8.33;1.67;;;;;;;23.57;33.04;100383.05;5100876;56;1138359;-76
2021/05/09 13:41:09;;;;;;;5.70;2.00;;;;;;;23.58;33.91;100379.31;5100818;56;1138488;-77
2021/05/09 13:46:16;;;;;;;1.98;1.32;;;;;;;23.57;34.09;100376.30;5100835;56;1138299;-74
2021/05/09 13:51:21;;;;;;;1.80;1.70;;;;;;;23.45;33.54;100371.48;5100791;56;1138306;-76
2021/05/09 13:56:28;;;;;;;3.83;2.20;;;;;;;23.33;34.21;100369.09;5100716;56;1138349;-77
2021/05/09 14:01:34;;;;;;;5.53;1.50;;;;;;;23.41;35.39;100361.30;5100658;56;1138498;-76
2021/05/09 14:06:40;;;;;;;1.52;1.00;;;;;;;23.51;34.14;100368.52;5092981;56;1138393;-76
2021/05/09 14:11:49;;;;;;;1.57;1.30;;;;;;;23.46;33.62;100357.47;5091705;57;1138473;-76
2021/05/09 14:16:53;;;;;;;2.40;2.20;;;;;;;23.50;33.64;100363.61;5091809;56;1138480;-75
2021/05/09 14:21:59;;;;;;;0.98;0.98;;;;;;;23.59;34.40;100355.33;5091994;57;1138488;-74
2021/05/09 14:27:06;;;;;;;1.60;1.15;;;;;;;23.62;33.72;100366.55;5092281;56;1138578;-76
2021/05/09 14:32:12;;;;;;;5.25;1.50;;;;;;;23.60;34.06;100361.88;5092174;57;1138469;-76
2021/05/09 14:37:18;;;;;;;1.50;1.40;;;;;;;23.60;33.90;100356.98;5092267;57;1138868;-76
2021/05/09 14:42:24;;;;;;;1.60;1.50;;;;;;;23.56;35.59;100340.37;5092253;57;1138851;-75
2021/05/09 14:47:30;;;;;;;3.52;1.35;;;;;;;23.64;34.71;100348.80;5092394;55;1138439;-76
2021/05/09 14:52:36;;;;;;;3.33;1.15;;;;;;;23.67;34.42;100337.06;5092093;56;1138831;-75
2021/05/09 14:57:43;;;;;;;2.05;1.72;;;;;;;23.53;32.38;100321.87;5092186;57;1139151;-74
2021/05/09 15:02:48;;;;;;;1.65;1.30;;;;;;;23.33;32.82;100325.08;5092399;56;1138312;-76
2021/05/09 15:07:54;;;;;;;7.05;4.05;;;;;;;23.26;33.91;100314.27;5106739;56;1138597;-79
2021/05/09 15:13:01;;;;;;;3.92;2.52;;;;;;;23.30;33.55;100312.83;5153220;56;1138906;-76
2021/05/09 15:18:09;;;;;;;2.10;1.85;;;;;;;23.33;32.62;100296.74;5153209;55;1138595;-80
2021/05/09 15:23:15;;;;;;;2.12;1.65;;;;;;;23.42;34.10;100308.98;5140456;56;1138891;-74
2021/05/09 15:28:20;;;;;;;5.65;1.70;;;;;;;23.47;33.63;100301.09;5120837;56;1138790;-78
2021/05/09 15:33:26;;;;;;;1.55;1.30;;;;;;;23.46;33.47;100288.64;5096312;56;1138664;-77
2021/05/09 15:38:33;;;;;;;12.00;5.65;;;;;;;23.40;33.76;100290.81;5096400;56;1138610;-80
2021/05/09 15:43:38;;;;;;;4.83;3.08;;;;;;;23.36;33.49;100291.77;5129172;55;1140394;-75
2021/05/09 15:48:44;;;;;;;2.90;2.67;;;;;;;23.27;33.04;100298.91;5153404;56;1144197;-82
2021/05/09 15:53:50;;;;;;;4.16;1.98;;;;;;;23.14;33.44;100288.94;5153691;56;1138726;-81
2021/05/09 15:58:56;;;;;;;2.58;1.47;;;;;;;23.10;33.66;100291.73;5153447;56;1138476;-72
2021/05/09 16:04:02;;;;;;;3.62;2.62;;;;;;;23.06;34.22;100295.90;5153676;56;1138893;-76
2021/05/09 16:09:10;;;;;;;12.65;7.78;;;;;;;23.02;34.49;100288.73;5149611;56;1138384;-76
2021/05/09 16:14:16;;;;;;;4.87;3.45;;;;;;;23.02;35.27;100282.50;5146491;56;1140731;-75
2021/05/09 16:19:21;;;;;;;8.18;4.95;;;;;;;23.02;34.98;100273.89;5146536;56;1138644;-79
2021/05/09 16:24:27;;;;;;;11.68;7.80;;;;;;;23.06;34.83;100270.27;5153045;56;1138470;-75
2021/05/09 16:29:33;;;;;;;10.30;5.28;;;;;;;23.06;35.26;100259.48;5152747;56;1140633;-77
2021/05/09 16:34:39;;;;;;;11.35;5.25;;;;;;;23.05;34.64;100259.17;5152848;56;1140673;-74
2021/05/09 16:39:45;;;;;;;11.15;5.33;;;;;;;23.00;34.69;100257.08;5152674;56;1140744;-76
2021/05/09 16:44:50;;;;;;;6.37;4.20;;;;;;;22.97;35.31;100252.09;5145464;56;1140842;-77
2021/05/09 16:49:57;;;;;;;4.43;1.63;;;;;;;22.94;35.58;100246.27;5140170;56;1138792;-77
2021/05/09 16:55:08;;;;;;;24.63;11.25;;;;;;;22.91;35.55;100255.62;5152817;56;1138608;-73
2021/05/09 17:00:15;;;;;;;4.87;3.20;;;;;;;22.86;36.29;100259.45;5152382;56;1142583;-76
2021/05/09 17:05:22;;;;;;;10.10;5.25;;;;;;;22.82;36.06;100259.53;5152860;56;1138328;-75
2021/05/09 17:10:28;;;;;;;18.80;9.45;;;;;;;22.75;36.79;100262.72;5153346;56;1140653;-76
2021/05/09 17:15:35;;;;;;;24.67;15.70;;;;;;;22.69;37.06;100254.92;5153817;56;1140602;-75
2021/05/09 17:20:41;;;;;;;27.48;13.20;;;;;;;22.63;37.92;100249.50;5153805;56;1142495;-74
2021/05/09 17:25:48;;;;;;;12.85;7.42;;;;;;;22.54;37.96;100256.95;5129034;56;1142890;-74
2021/05/09 17:30:53;;;;;;;10.10;5.05;;;;;;;22.45;38.02;100252.80;4990892;56;1140835;-74
2021/05/09 17:35:59;;;;;;;11.10;5.05;;;;;;;22.34;38.43;100248.80;4990476;57;1141115;-76
2021/05/09 17:41:06;;;;;;;17.35;9.83;;;;;;;22.26;38.71;100240.08;4993787;57;1140975;-76
2021/05/09 17:46:11;;;;;;;12.40;6.70;;;;;;;22.17;38.88;100244.78;4993538;56;1140819;-76
2021/05/09 17:51:17;;;;;;;14.28;8.20;;;;;;;22.09;39.21;100230.99;4992751;56;1140881;-74
2021/05/09 17:56:23;;;;;;;15.50;8.85;;;;;;;21.97;39.33;100225.84;4995222;56;1140514;-76
2021/05/09 18:01:29;;;;;;;11.78;5.78;;;;;;;21.85;39.81;100231.45;4994451;56;1141109;-75
2021/05/09 18:06:35;;;;;;;9.40;6.62;;;;;;;21.73;39.85;100225.80;4995594;56;1140787;-73
2021/05/09 18:11:42;;;;;;;21.10;15.03;;;;;;;21.60;40.27;100234.31;4995854;57;1139017;-75
2021/05/09 18:16:54;;;;;;;9.50;6.55;;;;;;;21.45;40.21;100234.94;5018659;57;1142940;-74
2021/05/09 18:27:19;;;;;;;13.88;7.65;;;;;;;21.20;40.99;100254.72;5121943;56;1138705;-73
2021/05/09 18:32:25;;;;;;;8.28;5.70;;;;;;;21.11;41.36;100252.63;5122027;55;1141102;-75
2021/05/09 18:37:30;;;;;;;9.58;4.47;;;;;;;21.00;41.61;100259.89;5123234;56;1138779;-79
2021/05/09 18:42:36;;;;;;;5.10;3.58;;;;;;;20.90;41.92;100264.77;5122984;56;1138710;-78
2021/05/09 18:47:44;;;;;;;15.60;10.65;;;;;;;20.76;42.27;100270.52;5121125;56;1138794;-82
2021/05/09 18:52:49;;;;;;;4.00;3.02;;;;;;;20.62;42.56;100264.69;5117405;56;1142887;-77
2021/05/09 18:57:55;;;;;;;3.43;2.87;;;;;;;20.49;42.76;100269.38;5124032;56;1138537;-78
2021/05/09 19:03:07;;;;;;;5.33;3.15;;;;;;;20.29;43.20;100281.22;5107675;56;1138602;-77
2021/05/09 19:08:09;;;;;;;8.95;3.95;;;;;;;20.29;43.20;100281.22;5123774;56;1139038;-77
2021/05/09 19:13:16;;;;;;;9.78;3.20;;;;;;;20.20;43.71;100274.27;5120919;56;1138582;-74
2021/05/09 19:18:21;;;;;;;21.27;16.50;;;;;;;20.13;43.99;100285.45;5120829;56;1138837;-75
2021/05/09 19:23:28;;;;;;;17.62;14.68;;;;;;;20.03;44.33;100273.63;5113812;56;1142789;-74
2021/05/09 19:28:33;;;;;;;9.70;5.90;;;;;;;19.93;44.45;100274.43;5120483;56;1142977;-75
2021/05/09 19:33:39;;;;;;;8.83;4.62;;;;;;;19.85;44.70;100264.31;5126866;56;1138894;-73
2021/05/09 19:38:47;;;;;;;6.90;3.62;;;;;;;19.73;44.97;100264.42;5111037;56;1138525;-75
2021/05/09 19:43:53;;;;;;;11.63;4.45;;;;;;;19.60;45.25;100256.51;5111199;56;1138656;-74
2021/05/09 19:48:59;;;;;;;6.90;3.00;;;;;;;19.49;45.45;100253.41;5118125;56;1140829;-73
2021/05/09 19:54:05;;;;;;;6.55;3.37;;;;;;;19.37;45.61;100250.36;5116719;56;1138903;-75
2021/05/09 19:59:11;;;;;;;5.35;3.67;;;;;;;19.26;45.81;100250.27;5119488;56;1138626;-75
2021/05/09 20:04:17;;;;;;;11.33;3.77;;;;;;;19.15;46.18;100250.70;5124415;56;1139107;-75
2021/05/09 20:09:23;;;;;;;5.77;3.20;;;;;;;19.03;46.33;100252.16;5129813;56;1140768;-73
2021/05/09 20:14:29;;;;;;;8.25;4.40;;;;;;;18.94;46.79;100254.59;5124320;56;1138653;-74
2021/05/09 20:19:34;;;;;;;7.07;3.87;;;;;;;18.84;46.95;100256.15;5130433;56;1138270;-72
2021/05/09 20:24:40;;;;;;;4.28;3.87;;;;;;;18.79;47.34;100260.39;5045666;56;1138306;-74
2021/05/09 20:29:46;;;;;;;9.23;3.83;;;;;;;18.70;47.56;100256.92;5120011;56;1138771;-74
2021/05/09 20:34:52;;;;;;;9.35;3.90;;;;;;;18.64;47.81;100266.19;5125635;56;1138898;-73
2021/05/09 20:39:58;;;;;;;7.40;4.40;;;;;;;18.57;48.00;100260.16;5068387;57;1138312;-73
2021/05/09 20:45:05;;;;;;;8.38;5.05;;;;;;;18.49;48.24;100259.35;5068229;57;1138526;-74
2021/05/09 20:50:12;;;;;;;6.50;4.33;;;;;;;18.41;48.37;100268.28;5068220;57;1138461;-73
2021/05/09 20:55:18;;;;;;;7.50;4.73;;;;;;;18.36;48.52;100268.47;5068126;57;1138413;-72
2021/05/09 21:00:24;;;;;;;13.50;4.50;;;;;;;18.31;48.92;100269.52;5068105;57;1139010;-75
2021/05/09 21:05:32;;;;;;;7.07;5.13;;;;;;;18.20;49.01;100278.75;5068112;57;1140354;-75
2021/05/09 21:10:38;;;;;;;10.00;5.07;;;;;;;18.12;49.30;100280.14;5088317;56;1138275;-73
2021/05/09 21:15:45;;;;;;;13.46;6.60;;;;;;;18.06;49.48;100275.46;5119216;56;1140585;-73
2021/05/09 21:20:53;;;;;;;9.33;5.93;;;;;;;17.97;49.72;100280.53;5098256;56;1262278;-75
2021/05/09 21:25:58;;;;;;;11.85;5.87;;;;;;;17.87;49.83;100279.40;5100635;56;1138437;-72
2021/05/09 21:31:05;;;;;;;14.15;5.83;;;;;;;17.77;50.01;100279.57;5100631;56;1140643;-75
2021/05/09 21:36:11;;;;;;;9.75;5.10;;;;;;;17.73;50.16;100273.39;5101732;56;1140885;-73
2021/05/09 21:41:16;;;;;;;13.77;6.33;;;;;;;17.66;50.44;100278.60;5101322;56;1138620;-76
2021/05/09 21:46:25;;;;;;;7.40;5.03;;;;;;;17.56;50.51;100281.44;5101248;56;1140899;-73
2021/05/09 21:51:31;;;;;;;7.10;4.50;;;;;;;17.48;50.75;100292.13;5101395;56;1138751;-73
2021/05/09 21:56:37;;;;;;;8.07;4.40;;;;;;;17.40;50.90;100281.46;5101689;56;1138427;-73
2021/05/09 22:01:43;;;;;;;12.97;5.50;;;;;;;17.30;51.40;100282.62;5101208;56;1138767;-73
2021/05/09 22:06:48;;;;;;;7.10;4.77;;;;;;;17.22;51.61;100278.96;5101416;56;1140766;-73
2021/05/09 22:11:55;;;;;;;7.20;4.70;;;;;;;17.16;51.77;100286.80;5101495;56;1138764;-75
2021/05/09 22:17:01;;;;;;;5.62;3.95;;;;;;;17.10;52.02;100275.46;5099363;56;1138626;-75
2021/05/09 22:22:07;;;;;;;8.03;3.70;;;;;;;17.06;51.92;100276.79;5092962;56;1138806;-73
2021/05/09 22:27:15;;;;;;;7.87;4.43;;;;;;;17.03;52.25;100278.45;5092342;56;1138244;-72
2021/05/09 22:32:21;;;;;;;8.40;5.43;;;;;;;16.95;52.27;100264.61;5092465;56;1138925;-76
2021/05/09 22:37:26;;;;;;;8.20;4.00;;;;;;;16.92;52.48;100267.60;5092690;56;1138883;-72
2021/05/09 22:42:32;;;;;;;7.67;4.20;;;;;;;16.89;52.64;100265.25;5092036;56;1138788;-74
2021/05/09 22:47:38;;;;;;;6.13;4.07;;;;;;;16.83;52.75;100262.73;5091952;56;1138391;-75
2021/05/09 22:52:45;;;;;;;9.50;4.70;;;;;;;16.78;52.92;100265.59;5092100;56;1138805;-74
2021/05/09 22:57:50;;;;;;;7.80;3.13;;;;;;;16.73;52.97;100263.90;5092062;56;1138336;-75
2021/05/09 23:02:57;;;;;;;7.77;4.10;;;;;;;16.69;53.22;100267.89;5091972;56;1138341;-73
2021/05/09 23:08:03;;;;;;;6.30;4.05;;;;;;;16.66;53.20;100265.55;5092511;56;1138751;-75
2021/05/09 23:13:09;;;;;;;5.80;4.00;;;;;;;16.62;53.33;100259.69;5092635;56;1138795;-73
2021/05/09 23:18:17;;;;;;;12.33;4.20;;;;;;;16.56;53.56;100262.16;5124609;56;1138770;-74